Time;durP1;ratioP1;P1;durP2;ratioP2;P2;SDS_P1;SDS_P2;PMS_P1;PMS_P2;Temp;Humidity;BMP_temperature;BMP_pressure;BME280_temperature;BME280_humidity;BME280_pressure;Samples;Min_cycle;Max_cycle;Signal;HPM_P1;HPM_P2
2023/10/01 00:01:17;;;;;;;14.27;7.77;;;;;;;-145.18;100.00;46652.59;4997569;28;20531;-88
2023/10/01 00:03:42;;;;;;;14.03;8.37;;;;;;;-145.18;100.00;46654.53;4994672;28;20077;-88
2023/10/01 00:06:08;;;;;;;13.53;7.47;;;;;;;-145.18;100.00;46656.50;4994760;28;20023;-89
2023/10/01 00:08:34;;;;;;;18.53;7.47;;;;;;;-145.18;100.00;46660.41;4992066;28;20110;-88
2023/10/01 00:11:00;;;;;;;16.43;7.77;;;;;;;-145.18;100.00;46656.50;4994440;28;20372;-90
2023/10/01 00:13:26;;;;;;;13.37;7.40;;;;;;;-145.18;100.00;46656.50;4994974;28;20034;-88
2023/10/01 00:15:52;;;;;;;15.97;7.17;;;;;;;-145.18;100.00;46662.34;5000635;28;20018;-88
2023/10/01 00:18:17;;;;;;;15.50;7.20;;;;;;;-145.18;100.00;46660.41;4994990;28;20041;-88
2023/10/01 00:20:43;;;;;;;14.23;6.73;;;;;;;-145.18;100.00;46650.63;4997538;28;20061;-90
2023/10/01 00:23:08;;;;;;;15.27;6.80;;;;;;;-145.18;100.00;46658.44;4997684;28;20072;-88
2023/10/01 00:25:38;;;;;;;12.57;6.87;;;;;;;-145.18;100.00;46664.31;4987698;28;20022;-88
2023/10/01 00:28:04;;;;;;;13.87;6.80;;;;;;;-145.18;100.00;46658.44;4988442;28;20464;-89
2023/10/01 00:30:31;;;;;;;10.00;6.17;;;;;;;-145.18;100.00;46660.41;4995511;28;20029;-89
2023/10/01 00:32:56;;;;;;;16.13;7.30;;;;;;;-145.18;100.00;46656.50;4993525;28;20088;-89
2023/10/01 00:35:22;;;;;;;17.43;6.77;;;;;;;-145.18;100.00;46662.34;4994407;28;20034;-89
2023/10/01 00:37:47;;;;;;;13.17;5.93;;;;;;;-145.18;100.00;46658.44;4987834;28;20074;-88
2023/10/01 00:40:14;;;;;;;16.03;6.27;;;;;;;-145.18;100.00;46662.34;5009682;28;20073;-88
2023/10/01 00:42:39;;;;;;;16.60;7.13;;;;;;;-145.18;100.00;46660.41;4999471;28;20561;-89
2023/10/01 00:45:14;;;;;;;12.97;6.03;;;;;;;-145.18;100.00;46664.31;4993205;28;20034;-90
2023/10/01 00:47:41;;;;;;;15.10;6.47;;;;;;;-145.18;100.00;46662.34;4994423;28;20117;-88
2023/10/01 00:50:12;;;;;;;15.40;6.73;;;;;;;-145.18;100.00;46662.34;4999499;28;20064;-81
2023/10/01 00:52:39;;;;;;;15.20;5.87;;;;;;;-145.18;100.00;46662.34;5009607;28;20483;-80
2023/10/01 00:55:06;;;;;;;14.13;6.27;;;;;;;-145.18;100.00;46666.25;4989054;28;20033;-80
2023/10/01 00:57:32;;;;;;;20.23;6.20;;;;;;;-145.18;100.00;46664.31;4996514;28;20046;-81
2023/10/01 00:59:57;;;;;;;18.67;6.83;;;;;;;-145.18;100.00;46672.13;4982668;28;20081;-85
2023/10/01 01:02:23;;;;;;;12.63;5.60;;;;;;;-145.18;100.00;46664.31;4992079;28;20057;-84
2023/10/01 01:05:19;;;;;;;12.47;6.30;;;;;;;-145.18;100.00;46674.06;4979903;28;20043;-84
2023/10/01 01:07:36;;;;;;;12.30;5.53;;;;;;;-145.18;100.00;46662.34;4984068;28;20054;-84
2023/10/01 01:10:02;;;;;;;13.50;5.67;;;;;;;-145.18;100.00;46670.16;5000663;28;20081;-89
2023/10/01 01:12:29;;;;;;;14.87;5.90;;;;;;;-145.18;100.00;46670.16;4995822;28;20037;-88
2023/10/01 01:14:58;;;;;;;12.07;6.33;;;;;;;-145.18;100.00;46662.34;4980848;28;20107;-89
2023/10/01 01:17:24;;;;;;;12.53;5.37;;;;;;;-145.18;100.00;46662.34;4994789;28;20034;-89
2023/10/01 01:19:52;;;;;;;10.73;5.70;;;;;;;-145.18;100.00;46670.16;4994134;28;20089;-89
2023/10/01 01:22:28;;;;;;;14.50;5.27;;;;;;;-145.18;100.00;46662.34;4984550;28;20117;-89
2023/10/01 01:25:10;;;;;;;13.55;5.13;;;;;;;-145.18;100.00;46664.31;4989397;28;20057;-88
2023/10/01 01:27:40;;;;;;;11.67;5.77;;;;;;;-145.18;100.00;46658.44;4981692;28;20130;-89
2023/10/01 01:30:09;;;;;;;11.97;5.60;;;;;;;-145.18;100.00;46662.34;4980706;28;20054;-88
2023/10/01 01:32:36;;;;;;;12.77;5.40;;;;;;;-145.18;100.00;46658.44;5001384;28;20129;-90
2023/10/01 01:35:05;;;;;;;11.70;5.00;;;;;;;-145.18;100.00;46658.44;4995721;28;20026;-88
2023/10/01 01:37:36;;;;;;;15.50;5.70;;;;;;;-145.18;100.00;46658.44;4992509;28;20133;-88
2023/10/01 01:40:09;;;;;;;14.23;6.23;;;;;;;-145.18;100.00;46660.41;4997765;28;20026;-89
2023/10/01 01:42:35;;;;;;;16.33;5.77;;;;;;;-145.18;100.00;46654.53;4979274;28;20026;-91
2023/10/01 01:45:18;;;;;;;11.90;5.90;;;;;;;-145.18;100.00;46654.53;4991988;28;20023;-89
2023/10/01 01:47:44;;;;;;;15.03;5.63;;;;;;;-145.18;100.00;46662.34;4981277;28;20030;-89
2023/10/01 01:50:26;;;;;;;15.27;5.50;;;;;;;-145.18;100.00;46662.34;4993504;28;20070;-88
2023/10/01 01:52:52;;;;;;;16.03;5.63;;;;;;;-145.18;100.00;46656.50;4993807;28;20070;-88
2023/10/01 01:55:23;;;;;;;13.30;5.53;;;;;;;-145.18;100.00;46658.44;4994035;28;20065;-89
2023/10/01 02:00:31;;;;;;;15.37;5.43;;;;;;;-145.18;100.00;46660.41;4982019;28;20033;-89
2023/10/01 02:02:59;;;;;;;10.97;5.50;;;;;;;-145.18;100.00;46658.44;4993900;28;20054;-87
2023/10/01 02:05:29;;;;;;;10.93;5.00;;;;;;;-145.18;100.00;46660.41;4991851;28;20042;-88
2023/10/01 02:07:55;;;;;;;13.93;6.00;;;;;;;-145.18;100.00;46656.50;4991234;28;20325;-89
2023/10/01 02:10:20;;;;;;;18.67;6.57;;;;;;;-145.18;100.00;46658.44;4991714;28;20053;-87
2023/10/01 02:12:50;;;;;;;12.33;5.30;;;;;;;-145.18;100.00;46658.44;5000009;28;20045;-88
2023/10/01 02:15:16;;;;;;;15.80;5.97;;;;;;;-145.18;100.00;46664.31;4986515;28;20499;-89
2023/10/01 02:17:41;;;;;;;11.67;5.23;;;;;;;-145.18;100.00;46652.59;4988441;28;20073;-89
2023/10/01 02:20:28;;;;;;;14.40;5.80;;;;;;;-145.18;100.00;46658.44;4993036;28;20463;-89
2023/10/01 02:22:53;;;;;;;13.43;5.37;;;;;;;-145.18;100.00;46654.53;5004896;28;20037;-88
2023/10/01 02:25:36;;;;;;;11.53;5.67;;;;;;;-145.18;100.00;46658.44;5004359;28;20081;-88
2023/10/01 02:28:13;;;;;;;13.30;5.30;;;;;;;-145.18;100.00;46656.50;4996132;28;20110;-88
2023/10/01 02:30:44;;;;;;;12.30;5.27;;;;;;;-145.18;100.00;46654.53;4984549;28;20458;-88
2023/10/01 02:33:16;;;;;;;15.10;5.37;;;;;;;-145.18;100.00;46660.41;4995515;28;20038;-88
2023/10/01 02:35:42;;;;;;;12.97;5.43;;;;;;;-145.18;100.00;46660.41;5005186;28;20065;-88
2023/10/01 02:38:36;;;;;;;12.80;5.27;;;;;;;-145.18;100.00;46654.53;4994411;28;20089;-88
2023/10/01 02:41:01;;;;;;;12.73;5.57;;;;;;;-145.18;100.00;46658.44;4995303;28;20034;-89
2023/10/01 02:43:41;;;;;;;13.63;5.93;;;;;;;-145.18;100.00;46656.50;4995281;28;20034;-90
2023/10/01 02:46:12;;;;;;;12.60;5.63;;;;;;;-145.18;100.00;46660.41;5000640;28;20044;-88
2023/10/01 02:48:41;;;;;;;10.33;4.80;;;;;;;-145.18;100.00;46658.44;4978520;28;20027;-88
2023/10/01 02:51:16;;;;;;;13.57;4.67;;;;;;;-145.18;100.00;46658.44;4992377;28;20547;-88
2023/10/01 02:53:42;;;;;;;12.67;5.00;;;;;;;-145.18;100.00;46652.59;4992673;28;20495;-90
2023/10/01 02:56:12;;;;;;;16.20;5.63;;;;;;;-145.18;100.00;46654.53;4992292;28;20073;-89
2023/10/01 02:58:44;;;;;;;16.57;4.73;;;;;;;-145.18;100.00;46656.50;4990100;28;20042;-88
2023/10/01 03:01:13;;;;;;;12.73;5.03;;;;;;;-145.18;100.00;46660.41;4988764;28;20085;-87
2023/10/01 03:03:40;;;;;;;13.03;5.10;;;;;;;-145.18;100.00;46656.50;4996089;28;20034;-88
2023/10/01 03:06:09;;;;;;;10.27;4.83;;;;;;;-145.18;100.00;46660.41;4997701;28;20121;-90
2023/10/01 03:09:00;;;;;;;12.07;4.77;;;;;;;-145.18;100.00;46652.59;4997273;28;20034;-89
2023/10/01 03:11:26;;;;;;;10.07;4.80;;;;;;;-145.18;100.00;46660.41;4994783;28;20133;-89
2023/10/01 03:13:54;;;;;;;12.37;5.03;;;;;;;-145.18;100.00;46660.41;4964740;28;20490;-89
2023/10/01 03:16:42;;;;;;;10.53;4.77;;;;;;;-145.18;100.00;46662.34;4999149;28;20053;-89
2023/10/01 03:19:24;;;;;;;16.87;4.73;;;;;;;-145.18;100.00;46656.50;5003416;28;20038;-88
2023/10/01 03:24:32;;;;;;;12.40;5.37;;;;;;;-145.18;100.00;46658.44;4995819;28;20486;-88
2023/10/01 03:27:12;;;;;;;10.50;4.73;;;;;;;-145.18;100.00;46664.31;5006609;28;20398;-89
2023/10/01 03:29:41;;;;;;;13.00;4.93;;;;;;;-145.18;100.00;46666.25;5010620;28;20034;-85
2023/10/01 03:34:52;;;;;;;9.70;4.90;;;;;;;-145.18;100.00;46666.25;5001139;28;20494;-84
2023/10/01 03:37:19;;;;;;;16.67;5.23;;;;;;;-145.18;100.00;46660.41;4999210;28;20421;-84
2023/10/01 03:39:50;;;;;;;13.13;4.70;;;;;;;-145.18;100.00;46664.31;5003357;28;20074;-84
2023/10/01 03:42:20;;;;;;;13.47;4.67;;;;;;;-145.18;100.00;46666.25;5000817;28;20375;-84
2023/10/01 03:47:34;;;;;;;13.73;5.40;;;;;;;-145.18;100.00;46662.34;5000444;28;20033;-84
2023/10/01 03:49:59;;;;;;;10.57;3.80;;;;;;;-145.18;100.00;46662.34;4997698;28;20030;-85
2023/10/01 03:52:29;;;;;;;12.50;4.47;;;;;;;-145.18;100.00;46662.34;4999608;28;20029;-84
2023/10/01 03:57:23;;;;;;;18.30;5.47;;;;;;;-145.18;100.00;46660.41;4982803;28;20030;-85
2023/10/01 03:59:57;;;;;;;13.17;4.43;;;;;;;-145.18;100.00;46658.44;4994471;28;20474;-85
2023/10/01 04:05:22;;;;;;;10.43;4.13;;;;;;;-145.18;100.00;46660.41;4994515;28;20085;-85
2023/10/01 04:07:49;;;;;;;9.33;4.57;;;;;;;-145.18;100.00;46666.25;4994027;28;20034;-84
2023/10/01 04:10:22;;;;;;;12.63;4.97;;;;;;;-145.18;100.00;46656.50;4993237;28;20058;-85
2023/10/01 04:12:54;;;;;;;11.90;4.90;;;;;;;-145.18;100.00;46654.53;4995627;28;20034;-85
2023/10/01 04:15:29;;;;;;;12.93;5.00;;;;;;;-145.18;100.00;46654.53;4993896;28;20038;-84
2023/10/01 04:21:17;;;;;;;11.37;4.77;;;;;;;-145.18;100.00;46656.50;4994495;28;20113;-86
2023/10/01 04:23:49;;;;;;;13.65;5.10;;;;;;;-145.18;100.00;46664.31;5001704;28;20038;-85
2023/10/01 04:26:19;;;;;;;9.73;4.47;;;;;;;-145.18;100.00;46654.53;4996236;28;20044;-85
2023/10/01 04:28:54;;;;;;;15.50;5.17;;;;;;;-145.18;100.00;46654.53;5003496;28;20113;-85
2023/10/01 04:31:42;;;;;;;11.27;5.27;;;;;;;-145.18;100.00;46656.50;4995635;28;20034;-84
2023/10/01 04:34:10;;;;;;;17.50;5.07;;;;;;;-145.18;100.00;46660.41;4994104;28;20413;-84
2023/10/01 04:36:39;;;;;;;13.13;5.00;;;;;;;-145.18;100.00;46658.44;4981252;28;20371;-85
2023/10/01 04:39:05;;;;;;;11.93;4.83;;;;;;;-145.18;100.00;46656.50;4990924;28;20076;-88
2023/10/01 04:41:31;;;;;;;13.03;5.17;;;;;;;-145.18;100.00;46658.44;5000342;28;20042;-85
2023/10/01 04:44:06;;;;;;;11.70;4.50;;;;;;;-145.18;100.00;46656.50;4992062;28;20090;-85
2023/10/01 04:46:37;;;;;;;15.37;5.90;;;;;;;-145.18;100.00;46656.50;4992088;28;20423;-85
2023/10/01 04:49:08;;;;;;;13.10;4.80;;;;;;;-145.18;100.00;46652.59;4994369;28;20101;-85
2023/10/01 04:51:46;;;;;;;13.50;5.03;;;;;;;-145.18;100.00;46652.59;4994396;28;20392;-80
2023/10/01 04:54:21;;;;;;;9.87;5.07;;;;;;;-145.18;100.00;46654.53;4998706;28;20061;-81
2023/10/01 04:56:50;;;;;;;12.13;4.97;;;;;;;-145.18;100.00;46650.63;5001564;28;20023;-81
2023/10/01 04:59:21;;;;;;;14.57;5.33;;;;;;;-145.18;100.00;46652.59;5010598;28;20042;-80
2023/10/01 05:01:56;;;;;;;12.93;5.37;;;;;;;-145.18;100.00;46654.53;5004744;28;20033;-81
2023/10/01 05:04:25;;;;;;;11.15;5.22;;;;;;;-145.18;100.00;46652.59;4991961;28;20490;-80
2023/10/01 05:07:04;;;;;;;15.30;5.70;;;;;;;-145.18;100.00;46654.53;5008175;28;20034;-80
2023/10/01 05:09:33;;;;;;;13.40;5.83;;;;;;;-145.18;100.00;46652.59;4998295;28;20046;-80
2023/10/01 05:12:01;;;;;;;14.63;5.10;;;;;;;-145.18;100.00;46656.50;4992286;28;20022;-80
2023/10/01 05:14:27;;;;;;;14.07;5.37;;;;;;;-145.18;100.00;46656.50;4994866;28;20058;-80
2023/10/01 05:16:54;;;;;;;9.07;4.57;;;;;;;-145.18;100.00;46654.53;4992800;28;20434;-81
2023/10/01 05:19:25;;;;;;;15.97;6.03;;;;;;;-145.18;100.00;46654.53;4993660;28;20029;-81
2023/10/01 05:21:52;;;;;;;14.07;5.77;;;;;;;-145.18;100.00;46656.50;4992257;28;20764;-83
2023/10/01 05:24:34;;;;;;;16.43;6.20;;;;;;;-145.18;100.00;46646.72;4956910;28;20109;-83
2023/10/01 05:27:03;;;;;;;10.43;5.17;;;;;;;-145.18;100.00;46652.59;4990305;28;20038;-83
2023/10/01 05:29:29;;;;;;;11.03;5.20;;;;;;;-145.18;100.00;46650.63;4998178;28;20053;-83
2023/10/01 05:31:56;;;;;;;13.17;5.73;;;;;;;-145.18;100.00;46650.63;4973771;28;20052;-84
2023/10/01 05:34:23;;;;;;;16.63;6.03;;;;;;;-145.18;100.00;46646.72;4987147;28;20034;-80
2023/10/01 05:36:52;;;;;;;12.03;4.97;;;;;;;-145.18;100.00;46652.59;4985681;28;20030;-79
2023/10/01 05:39:23;;;;;;;19.30;5.70;;;;;;;-145.18;100.00;46650.63;4994746;28;20050;-79
2023/10/01 05:41:51;;;;;;;13.87;5.03;;;;;;;-145.18;100.00;46650.63;4994309;28;20535;-79
2023/10/01 05:44:18;;;;;;;14.20;6.20;;;;;;;-145.18;100.00;46646.72;4994417;28;20097;-77
2023/10/01 05:46:46;;;;;;;13.50;5.77;;;;;;;-145.18;100.00;46648.69;4992519;28;20030;-77
2023/10/01 05:49:12;;;;;;;14.27;5.30;;;;;;;-145.18;100.00;46646.72;4995099;28;20481;-78
2023/10/01 05:51:45;;;;;;;16.93;6.00;;;;;;;-145.18;100.00;46646.72;4990474;28;20034;-78
2023/10/01 05:54:18;;;;;;;11.63;5.57;;;;;;;-145.18;100.00;46644.78;5006457;28;20116;-78
2023/10/01 05:56:48;;;;;;;17.90;6.00;;;;;;;-145.18;100.00;46648.69;5008297;28;20378;-78
2023/10/01 05:59:15;;;;;;;14.10;5.50;;;;;;;-145.18;100.00;46650.63;4980125;28;20041;-78
2023/10/01 06:01:41;;;;;;;16.63;5.67;;;;;;;-145.18;100.00;46648.69;4997025;28;20069;-79
2023/10/01 06:04:12;;;;;;;13.73;6.27;;;;;;;-145.18;100.00;46646.72;4997931;28;20034;-77
2023/10/01 06:06:38;;;;;;;14.80;5.67;;;;;;;-145.18;100.00;46646.72;4986970;28;20096;-78
2023/10/01 06:09:09;;;;;;;16.93;6.53;;;;;;;-145.18;100.00;46638.91;4995915;28;20857;-82
2023/10/01 06:11:38;;;;;;;11.60;5.27;;;;;;;-145.18;100.00;46644.78;4989258;28;20411;-88
2023/10/01 06:14:05;;;;;;;17.03;6.57;;;;;;;-145.18;100.00;46640.88;4989769;28;20045;-89
2023/10/01 06:16:37;;;;;;;17.43;6.63;;;;;;;-145.18;100.00;46642.81;5000392;28;20050;-87
2023/10/01 06:19:03;;;;;;;14.40;6.60;;;;;;;-145.18;100.00;46640.88;4973113;28;20081;-84
2023/10/01 06:21:33;;;;;;;18.70;6.27;;;;;;;-145.18;100.00;46644.78;4982921;28;20034;-87
2023/10/01 06:24:04;;;;;;;17.83;6.00;;;;;;;-145.18;100.00;46648.69;4991459;28;20133;-87
2023/10/01 06:26:42;;;;;;;14.73;6.00;;;;;;;-145.18;100.00;46646.72;4989554;28;20027;-87
2023/10/01 06:29:13;;;;;;;15.80;6.40;;;;;;;-145.18;100.00;46644.78;4988306;28;20062;-81
2023/10/01 06:32:00;;;;;;;12.63;6.10;;;;;;;-145.18;100.00;46644.78;4991001;28;20034;-81
2023/10/01 06:34:29;;;;;;;13.27;6.00;;;;;;;-145.18;100.00;46642.81;4988697;28;20114;-82
2023/10/01 06:36:58;;;;;;;11.80;6.37;;;;;;;-145.18;100.00;46644.78;4990000;28;20045;-82
2023/10/01 06:39:33;;;;;;;14.53;5.57;;;;;;;-145.18;100.00;46646.72;4989473;28;20466;-88
2023/10/01 06:44:43;;;;;;;16.63;6.37;;;;;;;-145.18;100.00;46640.88;4989229;28;20081;-86
2023/10/01 06:47:16;;;;;;;15.73;6.60;;;;;;;-145.18;100.00;46642.81;4986184;28;20432;-86
2023/10/01 06:50:20;;;;;;;12.77;5.70;;;;;;;-145.18;100.00;46646.72;4990723;28;20494;-82
2023/10/01 06:52:41;;;;;;;17.03;6.00;;;;;;;-145.18;100.00;46644.78;4990917;28;20388;-86
2023/10/01 06:55:08;;;;;;;14.63;6.37;;;;;;;-145.18;100.00;46650.63;4992162;28;20327;-82
2023/10/01 06:57:33;;;;;;;15.03;6.53;;;;;;;-145.18;100.00;46648.69;4995497;28;20049;-82
2023/10/01 07:00:00;;;;;;;16.13;7.20;;;;;;;-145.18;100.00;46642.81;4993323;28;20031;-82
2023/10/01 07:02:28;;;;;;;17.83;6.17;;;;;;;-145.18;100.00;46650.63;4995341;28;20072;-82
2023/10/01 07:04:58;;;;;;;15.90;6.60;;;;;;;-145.18;100.00;46648.69;4996186;28;20455;-81
2023/10/01 07:07:31;;;;;;;12.27;6.33;;;;;;;-145.18;100.00;46642.81;4994088;28;20089;-86
2023/10/01 07:09:57;;;;;;;16.13;6.77;;;;;;;-145.18;100.00;46648.69;4997962;28;20116;-86
2023/10/01 07:12:25;;;;;;;21.13;7.07;;;;;;;-145.18;100.00;46648.69;4996745;28;20375;-85
2023/10/01 07:14:51;;;;;;;18.27;7.07;;;;;;;-145.18;100.00;46646.72;4992095;28;20030;-85
2023/10/01 07:17:23;;;;;;;25.53;6.67;;;;;;;-145.18;100.00;46644.78;5010139;28;20074;-86
2023/10/01 07:20:02;;;;;;;13.87;6.70;;;;;;;-145.18;100.00;46646.72;5005408;28;20046;-78
2023/10/01 07:22:30;;;;;;;17.10;7.10;;;;;;;-145.18;100.00;46644.78;5008584;28;20069;-78
2023/10/01 07:24:59;;;;;;;15.20;6.30;;;;;;;-145.18;100.00;46644.78;4995685;28;20922;-78
2023/10/01 07:27:27;;;;;;;15.30;6.33;;;;;;;-145.18;100.00;46642.81;5002890;28;20073;-78
2023/10/01 07:29:54;;;;;;;14.30;6.70;;;;;;;-145.18;100.00;46642.81;5002975;28;20049;-77
2023/10/01 07:32:20;;;;;;;12.50;5.77;;;;;;;-145.18;100.00;46644.78;5004167;28;20030;-78
2023/10/01 07:34:48;;;;;;;18.63;6.77;;;;;;;-145.18;100.00;46644.78;5001989;28;20080;-77
2023/10/01 07:37:26;;;;;;;13.17;6.00;;;;;;;-145.18;100.00;46644.78;4992952;28;20531;-78
2023/10/01 07:39:55;;;;;;;16.23;6.27;;;;;;;-145.18;100.00;46642.81;5000117;28;20025;-78
2023/10/01 07:42:25;;;;;;;12.70;7.07;;;;;;;-145.18;100.00;46648.69;5004587;28;20431;-77
2023/10/01 07:44:52;;;;;;;16.27;6.97;;;;;;;-145.18;100.00;46646.72;4992817;28;20048;-78
2023/10/01 07:47:32;;;;;;;16.47;6.77;;;;;;;-145.18;100.00;46648.69;5006419;28;20041;-78
2023/10/01 07:50:12;;;;;;;18.63;7.63;;;;;;;-145.18;100.00;46646.72;4987919;28;20038;-78
2023/10/01 07:52:44;;;;;;;16.23;6.77;;;;;;;-145.18;100.00;46648.69;4990316;28;20033;-78
2023/10/01 07:55:34;;;;;;;17.83;6.83;;;;;;;-145.18;100.00;46648.69;5010982;28;20034;-79
2023/10/01 08:00:44;;;;;;;15.10;7.37;;;;;;;-145.18;100.00;46648.69;5000707;28;20044;-77
2023/10/01 08:05:48;;;;;;;16.50;7.57;;;;;;;-145.18;100.00;46652.59;5013443;28;20065;-78
2023/10/01 08:08:15;;;;;;;21.90;7.87;;;;;;;-145.18;100.00;46654.53;5006796;28;20391;-78
2023/10/01 08:10:40;;;;;;;17.43;7.37;;;;;;;-145.18;100.00;46654.53;5016210;28;20060;-78
2023/10/01 08:13:23;;;;;;;23.03;8.20;;;;;;;-145.18;100.00;46658.44;5000332;28;20042;-77
2023/10/01 08:15:58;;;;;;;17.57;7.47;;;;;;;-145.18;100.00;46662.34;4999083;28;20034;-77
2023/10/01 08:18:34;;;;;;;18.67;7.53;;;;;;;-145.18;100.00;46664.31;4987894;28;20058;-78
2023/10/01 08:21:02;;;;;;;25.37;8.27;;;;;;;-145.18;100.00;46660.41;5011622;28;20042;-78
2023/10/01 08:23:28;;;;;;;20.57;7.83;;;;;;;-145.18;100.00;46666.25;5000966;28;20105;-78
2023/10/01 08:25:55;;;;;;;21.00;8.30;;;;;;;-145.18;100.00;46666.25;4997018;28;20066;-78
2023/10/01 08:30:49;;;;;;;19.53;7.47;;;;;;;-145.18;100.00;46674.06;4994577;28;20041;-78
2023/10/01 08:33:24;;;;;;;17.33;8.07;;;;;;;-145.18;100.00;46668.22;4995790;28;20085;-77
2023/10/01 08:38:37;;;;;;;17.97;7.77;;;;;;;-145.18;100.00;46674.06;4994093;28;20129;-78
2023/10/01 08:41:03;;;;;;;18.13;8.27;;;;;;;-145.18;100.00;46676.03;4993656;28;20034;-78
2023/10/01 08:43:31;;;;;;;19.60;7.87;;;;;;;-145.18;100.00;46681.88;4993311;28;20039;-77
2023/10/01 08:46:05;;;;;;;19.30;8.37;;;;;;;-145.18;100.00;46679.94;4993901;28;20109;-78
2023/10/01 08:48:36;;;;;;;23.50;8.77;;;;;;;-145.18;100.00;46681.88;4993019;28;20080;-78
2023/10/01 08:51:11;;;;;;;19.93;7.90;;;;;;;-145.18;100.00;46683.84;4993984;28;20117;-78
2023/10/01 08:53:41;;;;;;;18.33;7.43;;;;;;;-145.18;100.00;46685.78;4993257;28;20042;-78
2023/10/01 08:56:32;;;;;;;22.93;8.47;;;;;;;-145.18;100.00;46683.84;4993724;28;20073;-79
2023/10/01 08:58:59;;;;;;;17.37;8.33;;;;;;;-145.18;100.00;46685.78;4993973;28;20124;-79
2023/10/01 09:01:30;;;;;;;21.37;8.47;;;;;;;-145.18;100.00;46687.75;4995560;28;20387;-79
2023/10/01 09:03:57;;;;;;;21.47;9.30;;;;;;;-145.18;100.00;46681.88;5002664;28;20026;-79
2023/10/01 09:06:26;;;;;;;25.83;8.73;;;;;;;-145.18;100.00;46683.84;4998050;28;20075;-79
2023/10/01 09:08:54;;;;;;;21.17;9.40;;;;;;;-145.18;100.00;46681.88;4995867;28;20034;-79
2023/10/01 09:11:35;;;;;;;18.97;9.07;;;;;;;-145.18;100.00;46679.94;4999264;28;20054;-79
2023/10/01 09:14:17;;;;;;;25.57;8.90;;;;;;;-145.18;100.00;46681.88;4998468;28;20030;-79
2023/10/01 09:16:49;;;;;;;24.63;9.20;;;;;;;-145.18;100.00;46681.88;4996880;28;20434;-79
2023/10/01 09:19:31;;;;;;;17.13;7.87;;;;;;;-145.18;100.00;46685.78;5010520;28;20029;-79
2023/10/01 09:22:07;;;;;;;21.43;8.60;;;;;;;-145.18;100.00;46683.84;4982182;28;20486;-79
2023/10/01 09:24:39;;;;;;;21.60;8.20;;;;;;;-145.18;100.00;46683.84;4992774;28;20141;-78
2023/10/01 09:27:19;;;;;;;21.53;7.90;;;;;;;-145.18;100.00;46679.94;5001279;28;20034;-79
2023/10/01 09:29:48;;;;;;;21.17;7.87;;;;;;;-145.18;100.00;46668.22;4997689;28;20075;-79
2023/10/01 09:32:14;;;;;;;19.87;8.17;;;;;;;-145.18;100.00;46664.31;5003059;28;20042;-79
2023/10/01 09:34:53;;;;;;;17.43;7.43;;;;;;;-145.18;100.00;46658.44;4999712;28;20416;-78
2023/10/01 09:37:34;;;;;;;17.33;7.60;;;;;;;-145.18;100.00;46611.56;4993168;28;20156;-79
2023/10/01 09:40:41;;;;;;;19.63;8.50;;;;;;;-145.18;100.00;46584.22;5009792;28;20037;-88
2023/10/01 09:43:03;;;;;;;19.77;8.73;;;;;;;-145.18;100.00;46562.72;4979372;28;20042;-88
2023/10/01 09:45:39;;;;;;;20.50;9.20;;;;;;;-145.18;100.00;46564.69;5003983;28;20033;-89
2023/10/01 09:48:10;;;;;;;15.17;8.13;;;;;;;-145.18;100.00;46560.78;4992352;28;20046;-89
2023/10/01 09:50:41;;;;;;;24.60;9.63;;;;;;;-145.18;100.00;46558.81;5007596;28;20076;-89
2023/10/01 09:53:19;;;;;;;24.23;7.97;;;;;;;-145.18;100.00;46554.91;5000813;28;20133;-89
2023/10/01 09:55:49;;;;;;;21.10;9.73;;;;;;;-145.18;100.00;46556.88;4992951;28;20037;-84
2023/10/01 09:58:24;;;;;;;24.03;9.63;;;;;;;-145.18;100.00;46558.81;4993079;28;20033;-87
2023/10/01 10:01:01;;;;;;;22.88;9.43;;;;;;;-145.18;100.00;46564.69;4996727;28;20046;-87
2023/10/01 10:03:37;;;;;;;26.63;9.93;;;;;;;-145.18;100.00;46562.72;4992507;28;20070;-86
2023/10/01 10:06:06;;;;;;;28.77;10.23;;;;;;;-145.18;100.00;46562.72;4997112;28;20030;-88
2023/10/01 10:08:37;;;;;;;24.10;10.30;;;;;;;-145.18;100.00;46566.63;4987015;28;20080;-87
2023/10/01 10:11:06;;;;;;;25.57;10.80;;;;;;;-145.18;100.00;46568.59;4999300;28;20065;-87
2023/10/01 10:13:37;;;;;;;20.17;9.17;;;;;;;-145.18;100.00;46568.59;4995953;28;20034;-87
2023/10/01 10:19:23;;;;;;;22.77;10.27;;;;;;;-145.18;100.00;46554.91;4973254;28;20104;-87
2023/10/01 10:24:37;;;;;;;25.83;10.13;;;;;;;-145.18;100.00;46560.78;4994053;28;20042;-87
2023/10/01 10:27:07;;;;;;;19.77;8.23;;;;;;;-145.18;100.00;46566.63;4983377;28;20038;-83
2023/10/01 10:29:57;;;;;;;20.17;8.63;;;;;;;-145.18;100.00;46556.88;4990765;28;20086;-83
2023/10/01 10:32:30;;;;;;;22.00;9.40;;;;;;;-145.18;100.00;46551.00;4990089;28;20093;-83
2023/10/01 10:35:04;;;;;;;19.63;9.30;;;;;;;-145.18;100.00;46549.06;4993328;28;20057;-82
2023/10/01 10:37:36;;;;;;;18.47;8.13;;;;;;;-145.18;100.00;46554.91;4997262;28;20582;-82
2023/10/01 10:43:02;;;;;;;18.57;8.57;;;;;;;-145.18;100.00;46554.91;4990865;28;20479;-83
2023/10/01 10:45:42;;;;;;;23.83;9.38;;;;;;;-145.18;100.00;46564.69;4987129;28;20030;-93
2023/10/01 10:48:09;;;;;;;19.27;8.63;;;;;;;-145.18;100.00;46547.09;4981557;28;20439;-82
2023/10/01 10:50:44;;;;;;;22.30;9.17;;;;;;;-145.18;100.00;46551.00;4992908;28;20045;-85
2023/10/01 10:53:16;;;;;;;24.92;10.40;;;;;;;-145.18;100.00;46562.72;4985474;28;20061;-86
2023/10/01 10:56:05;;;;;;;23.67;10.30;;;;;;;-145.18;100.00;46599.84;5003531;28;20029;-81
2023/10/01 10:58:41;;;;;;;26.17;9.73;;;;;;;-145.18;100.00;46586.16;4985920;28;20030;-81
2023/10/01 11:01:21;;;;;;;22.93;10.40;;;;;;;-145.18;100.00;46586.16;5004456;28;20136;-81
2023/10/01 11:03:50;;;;;;;22.27;9.83;;;;;;;-145.18;100.00;46564.69;5001734;28;20038;-81
2023/10/01 11:06:18;;;;;;;24.17;9.17;;;;;;;-145.18;100.00;46570.53;5003416;28;20105;-81
2023/10/01 11:08:51;;;;;;;22.57;8.00;;;;;;;-145.18;100.00;46593.97;4985032;28;20038;-81
2023/10/01 11:11:33;;;;;;;18.33;7.77;;;;;;;-145.18;100.00;46570.53;4990925;28;20328;-81
2023/10/01 11:14:11;;;;;;;19.73;7.33;;;;;;;-145.18;100.00;46574.44;5004522;28;20030;-82
2023/10/01 11:16:40;;;;;;;18.67;7.13;;;;;;;-145.18;100.00;46554.91;5003275;28;20379;-81
2023/10/01 11:19:12;;;;;;;16.87;6.70;;;;;;;-145.18;100.00;46539.28;4991956;28;20383;-82
2023/10/01 11:22:00;;;;;;;15.87;6.27;;;;;;;-145.18;100.00;46551.00;5007069;28;20041;-81
2023/10/01 11:24:25;;;;;;;14.93;6.03;;;;;;;-145.18;100.00;46549.06;5011596;28;20026;-81
2023/10/01 11:27:19;;;;;;;14.63;5.97;;;;;;;-145.18;100.00;46547.09;5005203;28;20494;-81
2023/10/01 11:30:15;;;;;;;15.30;6.10;;;;;;;-145.18;100.00;46574.44;5005473;28;20024;-81
2023/10/01 11:32:58;;;;;;;14.88;6.38;;;;;;;-145.18;100.00;46601.78;4998768;28;20053;-81
2023/10/01 11:35:59;;;;;;;14.90;6.22;;;;;;;-145.18;100.00;46617.41;5001861;28;20038;-81
2023/10/01 11:38:26;;;;;;;14.17;6.47;;;;;;;-145.18;100.00;46742.44;4986091;28;20513;-81
2023/10/01 11:41:13;;;;;;;14.33;6.50;;;;;;;-145.18;100.00;46607.66;5005879;28;20100;-81
2023/10/01 11:44:02;;;;;;;13.85;6.22;;;;;;;-145.18;100.00;46584.22;4995530;28;20069;-84
2023/10/01 11:49:17;;;;;;;16.70;6.30;;;;;;;-145.18;100.00;47125.31;4995209;28;20049;-84
2023/10/01 11:52:01;;;;;;;15.63;6.38;;;;;;;-145.18;100.00;47103.81;4994736;28;20177;-85
2023/10/01 11:54:52;;;;;;;14.35;6.75;;;;;;;-145.18;100.00;47031.53;4996521;28;20465;-84
2023/10/01 11:57:23;;;;;;;14.13;5.90;;;;;;;-145.18;100.00;47078.44;4991172;28;20029;-84
2023/10/01 11:59:59;;;;;;;17.13;6.50;;;;;;;-145.18;100.00;47029.59;4999341;28;20057;-83
2023/10/01 12:02:32;;;;;;;13.75;5.80;;;;;;;-145.18;100.00;47047.19;5002749;28;20026;-84
2023/10/01 12:05:06;;;;;;;13.32;6.22;;;;;;;-145.18;100.00;47035.44;4999543;28;20034;-84
2023/10/01 12:07:43;;;;;;;16.63;6.93;;;;;;;-145.18;100.00;46998.34;4990939;28;20034;-84